Time;durP1;ratioP1;P1;durP2;ratioP2;P2;SDS_P1;SDS_P2;PMS_P1;PMS_P2;Temp;Humidity;BMP_temperature;BMP_pressure;BME280_temperature;BME280_humidity;BME280_pressure;Samples;Min_cycle;Max_cycle;Signal;HPM_P1;HPM_P2
2023/07/24 00:01:31;;;;;;;;;;;17.00;99.90;;;;;;5086502;28;19962;-86
2023/07/24 00:03:56;;;;;;;;;;;17.00;99.90;;;;;;5053052;28;20366;-85
2023/07/24 00:09:29;;;;;;;;;;;16.80;99.90;;;;;;5078941;28;19917;-85
2023/07/24 00:11:54;;;;;;;;;;;16.70;99.90;;;;;;5051960;28;20007;-85
2023/07/24 00:14:20;;;;;;;;;;;16.80;99.90;;;;;;5069388;28;19919;-85
2023/07/24 00:16:46;;;;;;;;;;;16.70;99.90;;;;;;5053028;28;20414;-85
2023/07/24 00:19:11;;;;;;;;;;;16.60;99.90;;;;;;5085709;28;19932;-85
2023/07/24 00:21:37;;;;;;;;;;;16.50;99.90;;;;;;5035084;28;19913;-85
2023/07/24 00:24:02;;;;;;;;;;;16.40;99.90;;;;;;5047840;28;20759;-85
2023/07/24 00:26:28;;;;;;;;;;;16.20;99.90;;;;;;5051488;28;19912;-85
2023/07/24 00:28:53;;;;;;;;;;;16.10;99.90;;;;;;5051855;28;19913;-85
2023/07/24 00:31:19;;;;;;;;;;;15.90;99.90;;;;;;5035037;28;19915;-85
2023/07/24 00:33:45;;;;;;;;;;;15.80;99.90;;;;;;5051616;28;19915;-85
2023/07/24 00:36:11;;;;;;;;;;;15.70;99.90;;;;;;5034721;28;19920;-85
2023/07/24 00:38:36;;;;;;;;;;;15.60;99.90;;;;;;5052163;28;20280;-85
2023/07/24 00:41:02;;;;;;;;;;;15.50;99.90;;;;;;5035468;28;20355;-85
2023/07/24 00:43:27;;;;;;;;;;;15.40;99.90;;;;;;5035728;28;20526;-85
2023/07/24 00:45:54;;;;;;;;;;;15.30;99.90;;;;;;5034688;28;19935;-85
2023/07/24 00:48:20;;;;;;;;;;;15.20;99.90;;;;;;5053266;28;20398;-85
2023/07/24 00:50:46;;;;;;;;;;;15.20;99.90;;;;;;5051631;28;19940;-85
2023/07/24 00:53:12;;;;;;;;;;;15.20;99.90;;;;;;5051506;28;19908;-85
2023/07/24 00:55:40;;;;;;;;;;;15.20;99.90;;;;;;5051288;28;20284;-85
2023/07/24 00:58:06;;;;;;;;;;;15.10;99.90;;;;;;5051164;28;19944;-85
2023/07/24 01:00:31;;;;;;;;;;;15.00;99.90;;;;;;5033848;28;20288;-85
2023/07/24 01:02:58;;;;;;;;;;;14.90;99.90;;;;;;5050370;28;19908;-85
2023/07/24 01:05:25;;;;;;;;;;;14.80;99.90;;;;;;5033365;28;19909;-85
2023/07/24 01:07:51;;;;;;;;;;;14.60;99.90;;;;;;5049576;28;19959;-85
2023/07/24 01:10:17;;;;;;;;;;;14.50;99.90;;;;;;5051448;28;20550;-85
2023/07/24 01:13:06;;;;;;;;;;;14.40;99.90;;;;;;5035129;28;19916;-85
2023/07/24 01:15:33;;;;;;;;;;;14.30;99.90;;;;;;5068357;28;19913;-85
2023/07/24 01:18:07;;;;;;;;;;;14.30;99.90;;;;;;5051504;28;19919;-85
2023/07/24 01:20:34;;;;;;;;;;;14.20;99.90;;;;;;5034340;28;20423;-85
2023/07/24 01:22:59;;;;;;;;;;;14.20;99.90;;;;;;5051131;28;20260;-85
2023/07/24 01:25:32;;;;;;;;;;;14.10;99.90;;;;;;5046810;28;20048;-85
2023/07/24 01:27:58;;;;;;;;;;;14.10;99.90;;;;;;5051342;28;19908;-85
2023/07/24 01:30:23;;;;;;;;;;;14.00;99.90;;;;;;5034698;28;19905;-85
2023/07/24 01:32:49;;;;;;;;;;;13.90;99.90;;;;;;5084969;28;20383;-85
2023/07/24 01:35:16;;;;;;;;;;;13.90;99.90;;;;;;5034482;28;19959;-84
2023/07/24 01:37:42;;;;;;;;;;;13.90;99.90;;;;;;5050848;28;19908;-85
2023/07/24 01:40:09;;;;;;;;;;;13.90;99.90;;;;;;5034498;28;19974;-85
2023/07/24 01:42:35;;;;;;;;;;;13.90;99.90;;;;;;5034514;28;19909;-85
2023/07/24 01:45:01;;;;;;;;;;;13.80;99.90;;;;;;5051188;28;19916;-84
2023/07/24 01:47:27;;;;;;;;;;;13.70;99.90;;;;;;5051320;28;19987;-85
2023/07/24 01:49:53;;;;;;;;;;;13.70;99.90;;;;;;5051154;28;19960;-85
2023/07/24 01:52:19;;;;;;;;;;;13.70;99.90;;;;;;5052606;28;20415;-85
2023/07/24 01:54:45;;;;;;;;;;;13.70;99.90;;;;;;5051271;28;20394;-85
2023/07/24 01:57:10;;;;;;;;;;;13.80;99.90;;;;;;5033987;28;19909;-85
2023/07/24 01:59:36;;;;;;;;;;;13.90;99.90;;;;;;5051196;28;19913;-85
2023/07/24 02:02:02;;;;;;;;;;;14.00;99.90;;;;;;5034500;28;19909;-85
2023/07/24 02:04:28;;;;;;;;;;;14.10;99.90;;;;;;5050930;28;20021;-85
2023/07/24 02:06:53;;;;;;;;;;;14.10;99.90;;;;;;5034117;28;19951;-86
2023/07/24 02:09:19;;;;;;;;;;;14.10;99.90;;;;;;5084234;28;19976;-85
2023/07/24 02:11:45;;;;;;;;;;;14.20;99.90;;;;;;5051925;28;19947;-85
2023/07/24 02:14:12;;;;;;;;;;;14.30;99.90;;;;;;5054325;28;19915;-85
2023/07/24 02:16:37;;;;;;;;;;;14.20;99.90;;;;;;5037379;28;19912;-85
2023/07/24 02:19:04;;;;;;;;;;;14.30;99.90;;;;;;5054396;28;19908;-85
2023/07/24 02:21:30;;;;;;;;;;;14.30;99.90;;;;;;5037991;28;19908;-85
2023/07/24 02:23:56;;;;;;;;;;;14.20;99.90;;;;;;5054329;28;19909;-85
2023/07/24 02:26:21;;;;;;;;;;;14.20;99.90;;;;;;5070385;28;19917;-85
2023/07/24 02:28:47;;;;;;;;;;;14.10;99.90;;;;;;5050148;28;20308;-85
2023/07/24 02:31:13;;;;;;;;;;;14.10;99.90;;;;;;5037453;28;19908;-85
2023/07/24 02:33:38;;;;;;;;;;;14.00;99.90;;;;;;5053959;28;19908;-85
2023/07/24 02:36:06;;;;;;;;;;;14.00;99.90;;;;;;5037279;28;19912;-85
2023/07/24 02:38:33;;;;;;;;;;;13.90;99.90;;;;;;5054236;28;19913;-85
2023/07/24 02:40:59;;;;;;;;;;;13.90;99.90;;;;;;5037984;28;19909;-85
2023/07/24 02:43:40;;;;;;;;;;;13.90;99.90;;;;;;5070636;28;19913;-85
2023/07/24 02:46:05;;;;;;;;;;;13.80;99.90;;;;;;5037084;28;20352;-85
2023/07/24 02:48:31;;;;;;;;;;;13.90;99.90;;;;;;5053919;28;19957;-85
2023/07/24 02:50:57;;;;;;;;;;;13.90;99.90;;;;;;5053314;28;19971;-85
2023/07/24 02:53:22;;;;;;;;;;;14.10;99.90;;;;;;5053437;28;19995;-85
2023/07/24 02:55:48;;;;;;;;;;;14.20;99.90;;;;;;5053336;28;19961;-85
2023/07/24 02:58:13;;;;;;;;;;;14.30;99.90;;;;;;5053554;28;19908;-85
2023/07/24 03:00:39;;;;;;;;;;;14.50;99.90;;;;;;5036671;28;19993;-85
2023/07/24 03:03:05;;;;;;;;;;;14.60;99.90;;;;;;5053375;28;19916;-85
2023/07/24 03:05:31;;;;;;;;;;;14.70;99.90;;;;;;5053620;28;19905;-85
2023/07/24 03:07:56;;;;;;;;;;;14.90;99.90;;;;;;5053413;28;19931;-85
2023/07/24 03:10:22;;;;;;;;;;;15.00;99.90;;;;;;5036733;28;19959;-85
2023/07/24 03:12:48;;;;;;;;;;;15.10;99.90;;;;;;5053365;28;19999;-85
2023/07/24 03:15:14;;;;;;;;;;;15.20;99.90;;;;;;5036292;28;19999;-85
2023/07/24 03:17:39;;;;;;;;;;;15.20;99.90;;;;;;5036598;28;19909;-85
2023/07/24 03:20:15;;;;;;;;;;;15.10;99.90;;;;;;5036487;28;19955;-85
2023/07/24 03:22:41;;;;;;;;;;;15.10;99.90;;;;;;5053197;28;19923;-85
2023/07/24 03:25:07;;;;;;;;;;;15.00;99.90;;;;;;5036274;28;19905;-85
2023/07/24 03:27:32;;;;;;;;;;;14.90;99.90;;;;;;5058317;28;19909;-85
2023/07/24 03:29:58;;;;;;;;;;;14.90;99.90;;;;;;5046008;28;19944;-85
2023/07/24 03:32:25;;;;;;;;;;;14.90;99.90;;;;;;5053128;28;19916;-85
2023/07/24 03:34:50;;;;;;;;;;;14.80;99.90;;;;;;5052650;28;20008;-85
2023/07/24 03:37:16;;;;;;;;;;;15.00;99.90;;;;;;5086252;28;19940;-85
2023/07/24 03:39:42;;;;;;;;;;;15.10;99.90;;;;;;5036594;28;19916;-85
2023/07/24 03:42:14;;;;;;;;;;;15.20;99.90;;;;;;5052550;28;19968;-85
2023/07/24 03:44:40;;;;;;;;;;;15.10;99.90;;;;;;5032140;28;19913;-85
2023/07/24 03:47:06;;;;;;;;;;;15.10;99.90;;;;;;5039045;28;20368;-85
2023/07/24 03:49:31;;;;;;;;;;;15.00;99.90;;;;;;5052193;28;19958;-84
2023/07/24 03:51:57;;;;;;;;;;;15.00;99.90;;;;;;5053218;28;19915;-84
2023/07/24 03:54:22;;;;;;;;;;;15.00;99.90;;;;;;5053903;28;19909;-85
2023/07/24 03:56:48;;;;;;;;;;;15.00;99.90;;;;;;5035531;28;19917;-85
2023/07/24 03:59:13;;;;;;;;;;;15.00;99.90;;;;;;5051966;28;20010;-85
2023/07/24 04:01:39;;;;;;;;;;;15.10;99.90;;;;;;5035889;28;19916;-85
2023/07/24 04:04:05;;;;;;;;;;;15.20;99.90;;;;;;5035823;28;20253;-85
2023/07/24 04:06:30;;;;;;;;;;;15.20;99.90;;;;;;5052205;28;20676;-84
2023/07/24 04:08:56;;;;;;;;;;;15.30;99.90;;;;;;5035794;28;19950;-85
2023/07/24 04:11:21;;;;;;;;;;;15.30;99.90;;;;;;5052239;28;19935;-85
2023/07/24 04:14:15;;;;;;;;;;;15.40;99.90;;;;;;5052323;28;20375;-85
2023/07/24 04:16:40;;;;;;;;;;;15.50;99.90;;;;;;5055865;28;19969;-84
2023/07/24 04:19:09;;;;;;;;;;;15.60;99.90;;;;;;5052401;28;19948;-85
2023/07/24 04:21:35;;;;;;;;;;;15.70;99.90;;;;;;5051954;28;19943;-85
2023/07/24 04:24:00;;;;;;;;;;;15.80;99.90;;;;;;5052251;28;20818;-85
2023/07/24 04:26:55;;;;;;;;;;;15.90;99.90;;;;;;5047784;28;20536;-85
2023/07/24 04:29:23;;;;;;;;;;;16.00;99.90;;;;;;5052056;28;20008;-85
2023/07/24 04:31:50;;;;;;;;;;;16.10;99.90;;;;;;5049180;28;19913;-85
2023/07/24 04:34:15;;;;;;;;;;;16.20;99.90;;;;;;5052077;28;20436;-85
2023/07/24 04:36:41;;;;;;;;;;;16.30;99.90;;;;;;5051423;28;20012;-85
2023/07/24 04:39:07;;;;;;;;;;;16.40;99.90;;;;;;5052697;28;19909;-85
2023/07/24 04:41:32;;;;;;;;;;;16.50;99.90;;;;;;5035073;28;19909;-85
2023/07/24 04:43:58;;;;;;;;;;;16.60;99.90;;;;;;5052054;28;20007;-85
2023/07/24 04:46:23;;;;;;;;;;;16.70;99.90;;;;;;5052683;28;20291;-84
2023/07/24 04:48:58;;;;;;;;;;;16.80;99.90;;;;;;5052670;28;19916;-85
2023/07/24 04:51:23;;;;;;;;;;;16.90;99.90;;;;;;5034581;28;19909;-85
2023/07/24 04:53:49;;;;;;;;;;;16.90;99.90;;;;;;5035115;28;19917;-85
2023/07/24 04:56:15;;;;;;;;;;;17.00;99.90;;;;;;5034879;28;19916;-85
2023/07/24 04:58:40;;;;;;;;;;;17.10;99.90;;;;;;5051047;28;19913;-85
2023/07/24 05:01:06;;;;;;;;;;;17.20;99.90;;;;;;5050964;28;19919;-85
2023/07/24 05:03:34;;;;;;;;;;;17.30;99.90;;;;;;5051229;28;20351;-85
2023/07/24 05:06:00;;;;;;;;;;;17.30;99.90;;;;;;5050850;28;19909;-85
2023/07/24 05:08:35;;;;;;;;;;;17.40;99.90;;;;;;5051440;28;19912;-85
2023/07/24 05:11:00;;;;;;;;;;;17.40;99.90;;;;;;5029194;28;20010;-85
2023/07/24 05:13:53;;;;;;;;;;;17.50;99.90;;;;;;5034821;28;19913;-85
2023/07/24 05:16:19;;;;;;;;;;;17.50;99.90;;;;;;5052474;28;20287;-85
2023/07/24 05:18:45;;;;;;;;;;;17.60;99.90;;;;;;5035050;28;20004;-85
2023/07/24 05:21:10;;;;;;;;;;;17.70;99.90;;;;;;5035340;28;19909;-85
2023/07/24 05:23:36;;;;;;;;;;;17.80;99.90;;;;;;5051113;28;19912;-86
2023/07/24 05:26:02;;;;;;;;;;;17.90;99.90;;;;;;5035401;28;20502;-85
2023/07/24 05:28:28;;;;;;;;;;;17.90;99.90;;;;;;5034733;28;19916;-85
2023/07/24 05:30:54;;;;;;;;;;;18.10;99.90;;;;;;5034768;28;19913;-86
2023/07/24 05:33:19;;;;;;;;;;;18.20;99.90;;;;;;5032169;28;20168;-85
2023/07/24 05:35:45;;;;;;;;;;;18.30;99.90;;;;;;5068301;28;19913;-85
2023/07/24 05:38:11;;;;;;;;;;;18.40;99.90;;;;;;5035702;28;20263;-85
2023/07/24 05:40:36;;;;;;;;;;;18.40;99.90;;;;;;5086188;28;19927;-85
2023/07/24 05:43:03;;;;;;;;;;;18.50;99.90;;;;;;5042429;28;20630;-84
2023/07/24 05:45:29;;;;;;;;;;;18.60;99.90;;;;;;5053050;28;19955;-85
2023/07/24 05:47:54;;;;;;;;;;;18.60;99.90;;;;;;5055870;28;19909;-85
2023/07/24 05:50:20;;;;;;;;;;;18.60;99.90;;;;;;5055164;28;19919;-85
2023/07/24 05:52:46;;;;;;;;;;;18.70;99.90;;;;;;5043668;28;20566;-85
2023/07/24 05:55:11;;;;;;;;;;;18.80;99.90;;;;;;5047044;28;19913;-85
2023/07/24 05:57:37;;;;;;;;;;;18.90;99.90;;;;;;5036339;28;19913;-85
2023/07/24 06:00:03;;;;;;;;;;;18.90;99.90;;;;;;5050503;28;20368;-85
2023/07/24 06:02:36;;;;;;;;;;;19.00;99.90;;;;;;5053095;28;19959;-85
2023/07/24 06:05:02;;;;;;;;;;;19.10;99.90;;;;;;5051673;28;19912;-85
2023/07/24 06:07:28;;;;;;;;;;;19.10;99.90;;;;;;5050101;28;19920;-85
2023/07/24 06:09:53;;;;;;;;;;;19.20;99.90;;;;;;5037854;28;19916;-85
2023/07/24 06:12:19;;;;;;;;;;;19.30;99.90;;;;;;5047895;28;20692;-85
2023/07/24 06:14:45;;;;;;;;;;;19.20;99.90;;;;;;5087208;28;20388;-85
2023/07/24 06:17:10;;;;;;;;;;;19.20;99.90;;;;;;5079045;28;20737;-86
2023/07/24 06:19:36;;;;;;;;;;;19.00;99.90;;;;;;5052122;28;20046;-85
2023/07/24 06:22:02;;;;;;;;;;;18.90;99.90;;;;;;5084433;28;20275;-85
2023/07/24 06:24:27;;;;;;;;;;;18.90;99.90;;;;;;5054246;28;19916;-85
2023/07/24 06:26:53;;;;;;;;;;;18.90;99.90;;;;;;5053161;28;19976;-86
2023/07/24 06:29:18;;;;;;;;;;;18.90;99.90;;;;;;5037618;28;20331;-85
2023/07/24 06:31:44;;;;;;;;;;;18.90;99.90;;;;;;5052134;28;20472;-86
2023/07/24 06:34:10;;;;;;;;;;;19.00;99.90;;;;;;5036771;28;20364;-86
2023/07/24 06:36:36;;;;;;;;;;;19.10;99.90;;;;;;5054162;28;19913;-86
2023/07/24 06:39:01;;;;;;;;;;;19.20;99.90;;;;;;5055151;28;20674;-86
2023/07/24 06:41:27;;;;;;;;;;;19.30;99.90;;;;;;5049484;28;19912;-85
2023/07/24 06:43:53;;;;;;;;;;;19.30;99.90;;;;;;5054028;28;19912;-85
2023/07/24 06:46:18;;;;;;;;;;;19.40;99.90;;;;;;5067634;28;19913;-86
2023/07/24 06:48:44;;;;;;;;;;;19.40;99.90;;;;;;5035890;28;20000;-85
2023/07/24 06:51:09;;;;;;;;;;;19.40;99.90;;;;;;5053386;28;19909;-85
2023/07/24 06:53:35;;;;;;;;;;;19.50;99.90;;;;;;5052762;28;20365;-86
2023/07/24 06:56:01;;;;;;;;;;;19.60;99.90;;;;;;5049761;28;19913;-85
2023/07/24 06:58:26;;;;;;;;;;;19.80;99.90;;;;;;5030719;28;20406;-85
2023/07/24 07:00:52;;;;;;;;;;;20.00;99.90;;;;;;5036443;28;19916;-86
2023/07/24 07:03:17;;;;;;;;;;;20.40;99.90;;;;;;5053083;28;19961;-85
2023/07/24 07:05:43;;;;;;;;;;;20.60;99.90;;;;;;5052699;28;19908;-85
2023/07/24 07:08:09;;;;;;;;;;;21.10;99.90;;;;;;5034009;28;20376;-86
2023/07/24 07:10:34;;;;;;;;;;;21.40;99.90;;;;;;5075941;28;19913;-86
2023/07/24 07:13:00;;;;;;;;;;;21.60;99.90;;;;;;5035115;28;19970;-86
2023/07/24 07:15:25;;;;;;;;;;;21.80;99.90;;;;;;5046355;28;20276;-85
2023/07/24 07:17:51;;;;;;;;;;;21.90;99.90;;;;;;5052874;28;19959;-86
2023/07/24 07:20:17;;;;;;;;;;;22.00;99.90;;;;;;5035819;28;20698;-86
2023/07/24 07:22:42;;;;;;;;;;;22.20;99.90;;;;;;5051703;28;19908;-86
2023/07/24 07:25:08;;;;;;;;;;;22.50;99.90;;;;;;5050733;28;19916;-86
2023/07/24 07:27:33;;;;;;;;;;;22.60;99.90;;;;;;5052102;28;19913;-86
2023/07/24 07:29:59;;;;;;;;;;;22.70;99.90;;;;;;5034501;28;20280;-87
2023/07/24 07:32:25;;;;;;;;;;;22.60;99.90;;;;;;5052250;28;19944;-87
2023/07/24 07:34:50;;;;;;;;;;;22.20;99.90;;;;;;5045511;28;20402;-86
2023/07/24 07:37:16;;;;;;;;;;;21.60;99.90;;;;;;5034125;28;20341;-87
2023/07/24 07:39:42;;;;;;;;;;;21.10;99.90;;;;;;5044982;28;19919;-87
2023/07/24 07:42:07;;;;;;;;;;;20.40;99.90;;;;;;5035386;28;19917;-86
2023/07/24 07:44:33;;;;;;;;;;;19.80;99.90;;;;;;5052104;28;19916;-86
2023/07/24 07:46:58;;;;;;;;;;;19.30;99.90;;;;;;5044800;28;20027;-86
2023/07/24 07:49:24;;;;;;;;;;;18.90;99.90;;;;;;5034784;28;19912;-86
2023/07/24 07:51:50;;;;;;;;;;;18.70;99.90;;;;;;5025912;28;19916;-85
2023/07/24 07:54:15;;;;;;;;;;;18.50;99.90;;;;;;5048974;28;19909;-85
2023/07/24 07:56:41;;;;;;;;;;;18.50;99.90;;;;;;5029953;28;19931;-86
2023/07/24 07:59:07;;;;;;;;;;;18.40;99.90;;;;;;5051299;28;20284;-86
2023/07/24 08:01:33;;;;;;;;;;;18.50;99.90;;;;;;5051463;28;19908;-85
2023/07/24 08:03:58;;;;;;;;;;;18.60;99.90;;;;;;5052050;28;19923;-86
2023/07/24 08:06:24;;;;;;;;;;;18.80;99.90;;;;;;5038964;28;19950;-86
2023/07/24 08:08:50;;;;;;;;;;;18.80;99.90;;;;;;5094679;28;20003;-86
2023/07/24 08:11:15;;;;;;;;;;;18.30;99.90;;;;;;5088161;28;19920;-86
2023/07/24 08:13:41;;;;;;;;;;;18.10;99.90;;;;;;5056096;28;19957;-86
2023/07/24 08:16:18;;;;;;;;;;;18.00;99.90;;;;;;5035801;28;19927;-86
2023/07/24 08:18:47;;;;;;;;;;;17.80;99.90;;;;;;5052305;28;20398;-86
2023/07/24 08:21:13;;;;;;;;;;;17.80;99.90;;;;;;5031778;28;20287;-86
2023/07/24 08:23:39;;;;;;;;;;;17.90;99.90;;;;;;5043350;28;19924;-85
2023/07/24 08:26:05;;;;;;;;;;;18.10;99.90;;;;;;5034861;28;20670;-86
2023/07/24 08:28:31;;;;;;;;;;;18.20;99.90;;;;;;5032159;28;19916;-86
2023/07/24 08:31:24;;;;;;;;;;;18.20;99.90;;;;;;5050754;28;19924;-85
2023/07/24 08:33:50;;;;;;;;;;;18.40;99.90;;;;;;5066174;28;19913;-85
2023/07/24 08:36:15;;;;;;;;;;;18.60;99.90;;;;;;5034559;28;20288;-86
2023/07/24 08:38:42;;;;;;;;;;;18.70;99.90;;;;;;5050273;28;20303;-86
2023/07/24 08:41:12;;;;;;;;;;;19.00;99.90;;;;;;5033234;28;19919;-86
2023/07/24 08:43:38;;;;;;;;;;;19.00;99.90;;;;;;5043964;28;19909;-86
2023/07/24 08:46:05;;;;;;;;;;;19.20;99.90;;;;;;5040811;28;19908;-86
2023/07/24 08:48:33;;;;;;;;;;;19.30;99.90;;;;;;5063089;28;19916;-86
2023/07/24 08:50:59;;;;;;;;;;;19.30;99.90;;;;;;5083814;28;19908;-86
2023/07/24 08:53:25;;;;;;;;;;;19.20;99.90;;;;;;5043035;28;20519;-86
2023/07/24 08:55:52;;;;;;;;;;;19.10;99.90;;;;;;5048228;28;19912;-86
2023/07/24 08:58:17;;;;;;;;;;;19.10;99.90;;;;;;5030892;28;20003;-86
2023/07/24 09:00:43;;;;;;;;;;;19.10;99.90;;;;;;5040632;28;19999;-86
2023/07/24 09:03:10;;;;;;;;;;;19.30;99.90;;;;;;5047680;28;19913;-86
2023/07/24 09:05:35;;;;;;;;;;;19.40;99.90;;;;;;5078508;28;20024;-85
2023/07/24 09:08:01;;;;;;;;;;;19.70;99.90;;;;;;5049309;28;20007;-85
2023/07/24 09:10:26;;;;;;;;;;;19.80;99.90;;;;;;5051106;28;19912;-86
2023/07/24 09:12:52;;;;;;;;;;;20.00;99.90;;;;;;5050817;28;20414;-86
2023/07/24 09:15:18;;;;;;;;;;;20.20;99.90;;;;;;5046127;28;19917;-86
2023/07/24 09:17:50;;;;;;;;;;;21.00;99.90;;;;;;5077092;28;20287;-86
2023/07/24 09:20:16;;;;;;;;;;;22.50;99.90;;;;;;5050446;28;19915;-86
2023/07/24 09:22:48;;;;;;;;;;;23.40;99.90;;;;;;5050495;28;20367;-87
2023/07/24 09:25:14;;;;;;;;;;;23.70;99.90;;;;;;5052306;28;19996;-88
2023/07/24 09:27:40;;;;;;;;;;;23.70;99.90;;;;;;5069747;28;19944;-89
2023/07/24 09:30:14;;;;;;;;;;;23.30;99.90;;;;;;5039213;28;19912;-88
2023/07/24 09:32:40;;;;;;;;;;;23.00;99.90;;;;;;5039792;28;20674;-90
2023/07/24 09:35:16;;;;;;;;;;;22.70;99.90;;;;;;5048061;28;19919;-88
2023/07/24 09:37:42;;;;;;;;;;;22.60;99.90;;;;;;5053309;28;20428;-89
2023/07/24 09:40:08;;;;;;;;;;;23.00;99.90;;;;;;5074508;28;19905;-87
2023/07/24 09:42:35;;;;;;;;;;;22.70;99.90;;;;;;5055990;28;20367;-89
2023/07/24 09:45:19;;;;;;;;;;;22.30;99.90;;;;;;5050705;28;20370;-87
2023/07/24 09:48:00;;;;;;;;;;;22.00;99.90;;;;;;5050284;28;19951;-88
2023/07/24 09:50:26;;;;;;;;;;;21.70;99.90;;;;;;5063385;28;19955;-88
2023/07/24 09:52:52;;;;;;;;;;;21.60;99.90;;;;;;5036512;28;20275;-88
2023/07/24 09:55:21;;;;;;;;;;;21.70;99.90;;;;;;5038675;28;19908;-89
2023/07/24 09:57:48;;;;;;;;;;;21.90;99.90;;;;;;5036166;28;19909;-89
2023/07/24 10:00:17;;;;;;;;;;;22.20;99.90;;;;;;5039843;28;19912;-88
2023/07/24 10:02:42;;;;;;;;;;;22.50;99.90;;;;;;5035306;28;19909;-89
2023/07/24 10:05:08;;;;;;;;;;;22.80;99.90;;;;;;5037783;28;19938;-89
2023/07/24 10:07:34;;;;;;;;;;;22.90;99.90;;;;;;5035483;28;19909;-89
2023/07/24 10:10:01;;;;;;;;;;;22.80;99.90;;;;;;5069993;28;19909;-88
2023/07/24 10:12:31;;;;;;;;;;;22.80;99.90;;;;;;5065598;28;20274;-88
2023/07/24 10:14:56;;;;;;;;;;;22.40;99.90;;;;;;5035809;28;19916;-88
2023/07/24 10:17:38;;;;;;;;;;;22.10;99.90;;;;;;5068140;28;19987;-89
2023/07/24 10:20:05;;;;;;;;;;;21.90;99.90;;;;;;5063535;28;19912;-88
2023/07/24 10:22:31;;;;;;;;;;;21.70;99.90;;;;;;5047297;28;19909;-88
2023/07/24 10:24:57;;;;;;;;;;;21.70;99.90;;;;;;5035798;28;19975;-88
2023/07/24 10:27:26;;;;;;;;;;;21.40;99.90;;;;;;5046490;28;19909;-88
2023/07/24 10:30:02;;;;;;;;;;;21.30;99.90;;;;;;5068617;28;19913;-90
2023/07/24 10:32:28;;;;;;;;;;;21.10;99.90;;;;;;5035086;28;19958;-89
2023/07/24 10:35:06;;;;;;;;;;;21.00;99.90;;;;;;5044660;28;19913;-88
2023/07/24 10:37:33;;;;;;;;;;;20.80;99.90;;;;;;5035118;28;20012;-88
2023/07/24 10:39:58;;;;;;;;;;;20.70;99.90;;;;;;5045450;28;20168;-90
2023/07/24 10:42:24;;;;;;;;;;;20.60;99.90;;;;;;5038343;28;19908;-88
2023/07/24 10:44:49;;;;;;;;;;;20.60;99.90;;;;;;5047586;28;19916;-89
2023/07/24 10:47:15;;;;;;;;;;;20.50;99.90;;;;;;5038396;28;19961;-89
2023/07/24 10:49:50;;;;;;;;;;;20.50;99.90;;;;;;5037498;28;20356;-89
2023/07/24 10:52:15;;;;;;;;;;;20.30;99.90;;;;;;5032215;28;19959;-87
2023/07/24 10:54:41;;;;;;;;;;;20.20;99.90;;;;;;5038355;28;19931;-88
2023/07/24 10:57:07;;;;;;;;;;;20.00;99.90;;;;;;5054480;28;19955;-88
2023/07/24 10:59:36;;;;;;;;;;;20.20;99.90;;;;;;5054010;28;19912;-88
2023/07/24 11:02:04;;;;;;;;;;;20.30;99.90;;;;;;5037663;28;19915;-88
2023/07/24 11:04:29;;;;;;;;;;;20.40;99.90;;;;;;5054614;28;19919;-88
2023/07/24 11:06:57;;;;;;;;;;;20.40;99.90;;;;;;5054780;28;20332;-88
2023/07/24 11:09:33;;;;;;;;;;;20.30;99.90;;;;;;5054607;28;19916;-88
2023/07/24 11:11:59;;;;;;;;;;;20.20;99.90;;;;;;5054002;28;19913;-87
2023/07/24 11:15:05;;;;;;;;;;;20.30;99.90;;;;;;5036858;28;19911;-87
2023/07/24 11:17:35;;;;;;;;;;;20.30;99.90;;;;;;5016544;28;20339;-88
2023/07/24 11:20:10;;;;;;;;;;;20.60;99.90;;;;;;5033047;28;19916;-87
2023/07/24 11:22:37;;;;;;;;;;;20.90;99.90;;;;;;5036767;28;19991;-88
2023/07/24 11:25:05;;;;;;;;;;;21.10;99.90;;;;;;5036999;28;20376;-88
2023/07/24 11:27:30;;;;;;;;;;;21.20;99.90;;;;;;5037116;28;19915;-88
2023/07/24 11:29:56;;;;;;;;;;;21.40;99.90;;;;;;5036829;28;20275;-88
2023/07/24 11:32:22;;;;;;;;;;;21.70;99.90;;;;;;5037518;28;20256;-88
2023/07/24 11:34:51;;;;;;;;;;;22.20;99.90;;;;;;5053283;28;19967;-88
2023/07/24 11:37:18;;;;;;;;;;;22.50;99.90;;;;;;5053617;28;19913;-88
2023/07/24 11:39:54;;;;;;;;;;;22.60;99.90;;;;;;5053596;28;19908;-88
2023/07/24 11:42:19;;;;;;;;;;;22.80;99.90;;;;;;5054699;28;20564;-88
2023/07/24 11:44:45;;;;;;;;;;;23.00;99.90;;;;;;5053019;28;19904;-88
2023/07/24 11:47:10;;;;;;;;;;;23.30;99.90;;;;;;5053486;28;19951;-87
2023/07/24 11:49:37;;;;;;;;;;;22.90;99.90;;;;;;5036404;28;19909;-88
2023/07/24 11:52:06;;;;;;;;;;;22.50;99.90;;;;;;5053166;28;19987;-88
2023/07/24 11:54:35;;;;;;;;;;;22.20;99.90;;;;;;5036029;28;19908;-87
2023/07/24 11:57:01;;;;;;;;;;;22.00;99.90;;;;;;5053089;28;19909;-88
2023/07/24 11:59:26;;;;;;;;;;;21.60;99.90;;;;;;5052746;28;19916;-88
2023/07/24 12:01:52;;;;;;;;;;;21.70;99.90;;;;;;5036696;28;19909;-87
2023/07/24 12:04:18;;;;;;;;;;;21.70;99.90;;;;;;5036099;28;20375;-88
2023/07/24 12:06:45;;;;;;;;;;;21.50;99.90;;;;;;5035814;28;19905;-87
2023/07/24 12:09:11;;;;;;;;;;;21.30;99.90;;;;;;5052209;28;19960;-88
2023/07/24 12:11:41;;;;;;;;;;;21.10;99.90;;;;;;5035850;28;19913;-88
2023/07/24 12:14:06;;;;;;;;;;;21.10;99.90;;;;;;5035872;28;19931;-87
2023/07/24 12:16:33;;;;;;;;;;;21.10;99.90;;;;;;5052908;28;19934;-88
2023/07/24 12:18:59;;;;;;;;;;;21.00;99.90;;;;;;5035984;28;19912;-88
2023/07/24 12:21:25;;;;;;;;;;;21.20;99.90;;;;;;5035918;28;19904;-88
2023/07/24 12:23:50;;;;;;;;;;;21.50;99.90;;;;;;5036253;28;20019;-88
2023/07/24 12:26:16;;;;;;;;;;;21.60;99.90;;;;;;5052404;28;19916;-88
2023/07/24 12:28:41;;;;;;;;;;;21.80;99.90;;;;;;5052616;28;20284;-88
2023/07/24 12:31:07;;;;;;;;;;;22.20;99.90;;;;;;5036233;28;20043;-87
2023/07/24 12:33:32;;;;;;;;;;;22.40;99.90;;;;;;5036108;28;19908;-88
2023/07/24 12:35:58;;;;;;;;;;;22.50;99.90;;;;;;5052924;28;20374;-88
2023/07/24 12:38:24;;;;;;;;;;;22.20;99.90;;;;;;5035320;28;19912;-88
2023/07/24 12:40:55;;;;;;;;;;;22.20;99.90;;;;;;5036371;28;19909;-87
2023/07/24 12:43:21;;;;;;;;;;;22.50;99.90;;;;;;5068642;28;21500;-88
2023/07/24 12:45:46;;;;;;;;;;;22.60;99.90;;;;;;5035581;28;19911;-87
2023/07/24 12:48:12;;;;;;;;;;;22.30;99.90;;;;;;5051837;28;19908;-88
2023/07/24 12:50:38;;;;;;;;;;;22.10;99.90;;;;;;5035651;28;19959;-88
2023/07/24 12:53:03;;;;;;;;;;;21.80;99.90;;;;;;5051767;28;20429;-88
2023/07/24 12:55:29;;;;;;;;;;;21.70;99.90;;;;;;5034942;28;19917;-88
2023/07/24 12:57:56;;;;;;;;;;;21.70;99.90;;;;;;5051570;28;20412;-89
2023/07/24 13:00:49;;;;;;;;;;;21.50;99.90;;;;;;5052051;28;20003;-88
2023/07/24 13:03:40;;;;;;;;;;;21.60;99.90;;;;;;5033134;28;19999;-88
2023/07/24 13:06:05;;;;;;;;;;;22.50;99.90;;;;;;5030164;28;20006;-88
2023/07/24 13:08:31;;;;;;;;;;;23.00;99.90;;;;;;5035305;28;19947;-88
2023/07/24 13:10:56;;;;;;;;;;;22.90;99.90;;;;;;5051792;28;20442;-88
2023/07/24 13:13:22;;;;;;;;;;;23.70;99.90;;;;;;5052149;28;19935;-88
2023/07/24 13:15:48;;;;;;;;;;;25.00;99.90;;;;;;5035123;28;19919;-89
2023/07/24 13:18:16;;;;;;;;;;;25.60;99.90;;;;;;5034730;28;20015;-88
2023/07/24 13:20:42;;;;;;;;;;;25.60;99.90;;;;;;5031542;28;19909;-88
2023/07/24 13:23:07;;;;;;;;;;;24.70;99.90;;;;;;5048675;28;19908;-87
2023/07/24 13:25:33;;;;;;;;;;;24.30;99.90;;;;;;5051701;28;20266;-87
2023/07/24 13:27:58;;;;;;;;;;;24.30;99.90;;;;;;5051485;28;19953;-87
2023/07/24 13:33:53;;;;;;;;;;;24.00;99.90;;;;;;5048513;28;19939;-88
2023/07/24 13:36:18;;;;;;;;;;;24.40;99.90;;;;;;5034978;28;19920;-88
2023/07/24 13:38:44;;;;;;;;;;;24.60;99.90;;;;;;5035241;28;20363;-88
2023/07/24 13:41:09;;;;;;;;;;;24.70;99.90;;;;;;5035146;28;19908;-88
2023/07/24 13:43:35;;;;;;;;;;;24.50;99.90;;;;;;5051493;28;20370;-88
2023/07/24 13:46:02;;;;;;;;;;;24.50;99.90;;;;;;5034713;28;20260;-88
2023/07/24 13:48:49;;;;;;;;;;;24.90;99.90;;;;;;5051586;28;20372;-88
2023/07/24 13:51:40;;;;;;;;;;;25.40;99.90;;;;;;5051580;28;19909;-88
2023/07/24 13:54:05;;;;;;;;;;;25.60;99.90;;;;;;5034603;28;19959;-88
2023/07/24 13:56:34;;;;;;;;;;;24.80;99.90;;;;;;5051257;28;19955;-88
2023/07/24 13:59:00;;;;;;;;;;;24.20;99.90;;;;;;5034252;28;20007;-88
2023/07/24 14:01:26;;;;;;;;;;;24.10;99.90;;;;;;5052026;28;20304;-87
2023/07/24 14:03:51;;;;;;;;;;;24.20;99.90;;;;;;5035514;28;19954;-89
2023/07/24 14:06:17;;;;;;;;;;;24.40;99.90;;;;;;5051124;28;20486;-88
2023/07/24 14:08:42;;;;;;;;;;;25.30;99.90;;;;;;5037625;28;19916;-89
2023/07/24 14:11:08;;;;;;;;;;;26.00;99.90;;;;;;5054965;28;20273;-88
2023/07/24 14:13:33;;;;;;;;;;;26.00;99.90;;;;;;5038087;28;19905;-88
2023/07/24 14:15:59;;;;;;;;;;;25.40;99.90;;;;;;5054432;28;19924;-88
2023/07/24 14:18:25;;;;;;;;;;;25.00;99.90;;;;;;5038467;28;19923;-88
2023/07/24 14:20:52;;;;;;;;;;;25.00;99.90;;;;;;5037858;28;20267;-88
2023/07/24 14:23:17;;;;;;;;;;;25.50;99.90;;;;;;5038235;28;20348;-88